KCBM/CBM METAR and TAF weather

Enter ICAO airport designator
Station Type Date Time Source
KCBM METAR 2024/04/15 08:55 UTC NOAA

KCBM 150855Z AUTO 00000KT 6SM HZ CLR 14/11 A2997 RMK AO2 SLP150 T01370110 55004 $


Station Type Date Time Source
KCBM Decoded METAR 2024/04/15 08:55 UTC NOAA

Columbus Air Force Base, MS, United States (KCBM) 33-39N 088-27W
Apr 15, 2024 - 04:55 AM EDT / 2024.04.15 0855 UTC
Wind: Calm:0
Visibility: 6 mile(s):0
Sky conditions: clear
Weather: haze
Temperature: 56.7 F (13.7 C)
Dew Point: 51.8 F (11.0 C)
Relative Humidity: 83%
Pressure (altimeter): 29.97 in. Hg (1014 hPa)
Pressure tendency: 0.01 inches (0.4 hPa) lower than three hours ago
ob: KCBM 150855Z AUTO 00000KT 6SM HZ CLR 14/11 A2997 RMK AO2 SLP150 T01370110 55004
cycle: 9

Station Type Date Time Source
KCBM TAF 2024/04/15 09:59 UTC NOAA